Maria L — D5MV9 — position and weather

sailwx.info

Track history (hours):
 
Tides and Currents Weather Stations Pressure Air Temp Water Temp Dewpoint Dewpoint Depression Visibility Wind Speed Wind Dir Waves Ship Positions

Maria L

Last reported at 2018-Apr-03 23:44 UTC. Time now 2018-May-22 18:01 UTC.
Position N 09°14' W 079°55'.
Warning: this ship's position is 48 days out of date.

; draft 8.6 m.

Type: Cargo ship. MMSI: 636017823.

Date/timePositionNaut miles runAvg speedWind from/ knotsBaromVisibWave heightAir tempDewpointWater temp
2018-Apr-03 23:44N 09°14' W 079°55'2 7.1
2018-Apr-03 23:30N 09°16' W 079°55'1 1.3
2018-Apr-03 22:56N 09°16' W 079°55'0 0.7
2018-Apr-03 22:23N 09°17' W 079°55'1 1.1
2018-Apr-03 21:53N 09°17' W 079°55'2 3.9
2018-Apr-03 21:30N 09°19' W 079°55'3 5.5
2018-Apr-03 21:00N 09°22' W 079°55'0 0.2
2018-Apr-03 20:30N 09°22' W 079°56'0 0.0
2018-Apr-03 20:00N 09°22' W 079°56'0 0.0
2018-Apr-03 19:30N 09°22' W 079°56'0 0.0
2018-Apr-03 19:00N 09°22' W 079°56'0 0.0
2018-Apr-03 18:30N 09°22' W 079°56'0 0.0
2018-Apr-03 18:00N 09°22' W 079°56'0 0.0
2018-Apr-03 17:30N 09°22' W 079°56'0 0.1
2018-Apr-03 17:00N 09°22' W 079°56'0 0.0
2018-Apr-03 16:30N 09°22' W 079°56'0 0.0
2018-Apr-03 16:01N 09°22' W 079°56'0 0.0
2018-Apr-03 15:30N 09°22' W 079°56'0 0.0
2018-Apr-03 15:00N 09°22' W 079°56'0 0.0
2018-Apr-03 14:30N 09°22' W 079°56'0 0.0
2018-Apr-03 14:00N 09°22' W 079°56'1 2.1
2018-Apr-03 13:30N 09°23' W 079°55'2 4.5
2018-Apr-03 12:59N 09°25' W 079°55'1 1.8
2018-Apr-03 12:30N 09°26' W 079°55'2 3.1
2018-Apr-03 11:59N 09°27' W 079°56'0 0.1
2018-Apr-03 11:17N 09°27' W 079°56'0 0.0
2018-Apr-03 10:59N 09°27' W 079°56'0 0.0
2018-Apr-03 09:59N 09°27' W 079°56'0 0.0
2018-Apr-03 08:20N 09°27' W 079°56'0 0.1
2018-Apr-03 07:56N 09°27' W 079°56'0 0.0
2018-Apr-03 07:17N 09°27' W 079°56'0 0.0
2018-Apr-03 06:53N 09°27' W 079°56'0 0.0
2018-Apr-03 05:23N 09°27' W 079°56'0 0.0
2018-Apr-03 04:02N 09°27' W 079°56'0 0.0
2018-Apr-03 03:59N 09°27' W 079°56'0 0.0
2018-Apr-03 03:29N 09°27' W 079°56'0 0.0
2018-Apr-03 02:44N 09°27' W 079°56'0 0.1
2018-Apr-03 01:53N 09°27' W 079°56'0 0.0
2018-Apr-03 01:26N 09°27' W 079°56'0 0.0
2018-Apr-03 00:44N 09°27' W 079°56'0 0.0
2018-Apr-03 00:26N 09°27' W 079°56'0 0.0
2018-Apr-02 23:50N 09°27' W 079°56'0 0.1
2018-Apr-02 23:29N 09°27' W 079°56'0 0.0
2018-Apr-02 22:56N 09°27' W 079°56'0 0.0
2018-Apr-02 22:29N 09°27' W 079°56'0 0.0
2018-Apr-02 21:59N 09°27' W 079°56'0 0.0
2018-Apr-02 21:26N 09°27' W 079°56'0 0.0
2018-Apr-02 20:59N 09°27' W 079°56'0 0.0
2018-Apr-02 20:29N 09°27' W 079°56'0 0.0
2018-Apr-02 19:59N 09°27' W 079°56'0 0.0
2018-Apr-02 19:29N 09°27' W 079°56'0 0.0
2018-Apr-02 18:59N 09°27' W 079°56'0 0.0
2018-Apr-02 18:28N 09°27' W 079°56'0 0.0
2018-Apr-02 17:59N 09°27' W 079°56'0 0.0
2018-Apr-02 17:29N 09°27' W 079°56'0 0.0
2018-Apr-02 16:56N 09°27' W 079°56'0 0.0
2018-Apr-02 16:28N 09°27' W 079°56'0 0.0
2018-Apr-02 15:56N 09°27' W 079°56'0 0.0
2018-Apr-02 15:29N 09°27' W 079°56'0 0.0
2018-Apr-02 14:58N 09°27' W 079°56'0 0.0
2018-Apr-02 14:20N 09°27' W 079°56'0 0.0
2018-Apr-02 13:58N 09°27' W 079°56'0 0.0
2018-Apr-02 13:26N 09°27' W 079°56'0 0.0
2018-Apr-02 12:53N 09°27' W 079°56'0 0.0
2018-Apr-02 12:29N 09°27' W 079°56'0 0.0
2018-Apr-02 11:59N 09°27' W 079°56'0 0.0
2018-Apr-02 11:29N 09°27' W 079°56'0 0.0
2018-Apr-02 10:29N 09°27' W 079°56'0 0.0
2018-Apr-02 09:59N 09°27' W 079°56'0 0.0
2018-Apr-02 09:26N 09°27' W 079°56'0 0.0
2018-Apr-02 08:43N 09°27' W 079°56'0 0.1
2018-Apr-02 08:29N 09°27' W 079°56'0 0.1
2018-Apr-02 08:00N 09°27' W 079°56'1 2.9
2018-Apr-02 07:30N 09°27' W 079°55'3 6.7
2018-Apr-02 07:00N 09°30' W 079°53'  
Track history (hours):
 
Tides and Currents Weather Stations Pressure Air Temp Water Temp Dewpoint Dewpoint Depression Visibility Wind Speed Wind Dir Waves Ship Positions

Maria L

Last reported at 2018-Apr-03 23:44 UTC. Time now 2018-May-22 18:01 UTC.
Position N 09°14' W 079°55'.
Warning: this ship's position is 48 days out of date.

; draft 8.6 m.

Type: Cargo ship. MMSI: 636017823.

Date/timePositionNaut miles runAvg speedWind from/ knotsBaromVisibWave heightAir tempDewpointWater temp
2018-Apr-03 23:44N 09°14' W 079°55'2 7.1
2018-Apr-03 23:30N 09°16' W 079°55'1 1.3
2018-Apr-03 22:56N 09°16' W 079°55'0 0.7
2018-Apr-03 22:23N 09°17' W 079°55'1 1.1
2018-Apr-03 21:53N 09°17' W 079°55'2 3.9
2018-Apr-03 21:30N 09°19' W 079°55'3 5.5
2018-Apr-03 21:00N 09°22' W 079°55'0 0.2
2018-Apr-03 20:30N 09°22' W 079°56'0 0.0
2018-Apr-03 20:00N 09°22' W 079°56'0 0.0
2018-Apr-03 19:30N 09°22' W 079°56'0 0.0
2018-Apr-03 19:00N 09°22' W 079°56'0 0.0
2018-Apr-03 18:30N 09°22' W 079°56'0 0.0
2018-Apr-03 18:00N 09°22' W 079°56'0 0.0
2018-Apr-03 17:30N 09°22' W 079°56'0 0.1
2018-Apr-03 17:00N 09°22' W 079°56'0 0.0
2018-Apr-03 16:30N 09°22' W 079°56'0 0.0
2018-Apr-03 16:01N 09°22' W 079°56'0 0.0
2018-Apr-03 15:30N 09°22' W 079°56'0 0.0
2018-Apr-03 15:00N 09°22' W 079°56'0 0.0
2018-Apr-03 14:30N 09°22' W 079°56'0 0.0
2018-Apr-03 14:00N 09°22' W 079°56'1 2.1
2018-Apr-03 13:30N 09°23' W 079°55'2 4.5
2018-Apr-03 12:59N 09°25' W 079°55'1 1.8
2018-Apr-03 12:30N 09°26' W 079°55'2 3.1
2018-Apr-03 11:59N 09°27' W 079°56'0 0.1
2018-Apr-03 11:17N 09°27' W 079°56'0 0.0
2018-Apr-03 10:59N 09°27' W 079°56'0 0.0
2018-Apr-03 09:59N 09°27' W 079°56'0 0.0
2018-Apr-03 08:20N 09°27' W 079°56'0 0.1
2018-Apr-03 07:56N 09°27' W 079°56'0 0.0
2018-Apr-03 07:17N 09°27' W 079°56'0 0.0
2018-Apr-03 06:53N 09°27' W 079°56'0 0.0
2018-Apr-03 05:23N 09°27' W 079°56'0 0.0
2018-Apr-03 04:02N 09°27' W 079°56'0 0.0
2018-Apr-03 03:59N 09°27' W 079°56'0 0.0
2018-Apr-03 03:29N 09°27' W 079°56'0 0.0
2018-Apr-03 02:44N 09°27' W 079°56'0 0.1
2018-Apr-03 01:53N 09°27' W 079°56'0 0.0
2018-Apr-03 01:26N 09°27' W 079°56'0 0.0
2018-Apr-03 00:44N 09°27' W 079°56'0 0.0
2018-Apr-03 00:26N 09°27' W 079°56'0 0.0
2018-Apr-02 23:50N 09°27' W 079°56'0 0.1
2018-Apr-02 23:29N 09°27' W 079°56'0 0.0
2018-Apr-02 22:56N 09°27' W 079°56'0 0.0
2018-Apr-02 22:29N 09°27' W 079°56'0 0.0
2018-Apr-02 21:59N 09°27' W 079°56'0 0.0
2018-Apr-02 21:26N 09°27' W 079°56'0 0.0
2018-Apr-02 20:59N 09°27' W 079°56'0 0.0
2018-Apr-02 20:29N 09°27' W 079°56'0 0.0
2018-Apr-02 19:59N 09°27' W 079°56'0 0.0
2018-Apr-02 19:29N 09°27' W 079°56'0 0.0
2018-Apr-02 18:59N 09°27' W 079°56'0 0.0
2018-Apr-02 18:28N 09°27' W 079°56'0 0.0
2018-Apr-02 17:59N 09°27' W 079°56'0 0.0
2018-Apr-02 17:29N 09°27' W 079°56'0 0.0
2018-Apr-02 16:56N 09°27' W 079°56'0 0.0
2018-Apr-02 16:28N 09°27' W 079°56'0 0.0
2018-Apr-02 15:56N 09°27' W 079°56'0 0.0
2018-Apr-02 15:29N 09°27' W 079°56'0 0.0
2018-Apr-02 14:58N 09°27' W 079°56'0 0.0
2018-Apr-02 14:20N 09°27' W 079°56'0 0.0
2018-Apr-02 13:58N 09°27' W 079°56'0 0.0
2018-Apr-02 13:26N 09°27' W 079°56'0 0.0
2018-Apr-02 12:53N 09°27' W 079°56'0 0.0
2018-Apr-02 12:29N 09°27' W 079°56'0 0.0
2018-Apr-02 11:59N 09°27' W 079°56'0 0.0
2018-Apr-02 11:29N 09°27' W 079°56'0 0.0
2018-Apr-02 10:29N 09°27' W 079°56'0 0.0
2018-Apr-02 09:59N 09°27' W 079°56'0 0.0
2018-Apr-02 09:26N 09°27' W 079°56'0 0.0
2018-Apr-02 08:43N 09°27' W 079°56'0 0.1
2018-Apr-02 08:29N 09°27' W 079°56'0 0.1
2018-Apr-02 08:00N 09°27' W 079°56'1 2.9
2018-Apr-02 07:30N 09°27' W 079°55'3 6.7
2018-Apr-02 07:00N 09°30' W 079°53'  

Dump ship's entire track history